createdAt,value
2022-10-19T00:01:15.675Z,17.84
2022-10-19T00:03:44.479Z,17.83
2022-10-19T00:06:14.874Z,17.83
2022-10-19T00:08:43.074Z,17.86
2022-10-19T00:11:11.779Z,17.90
2022-10-19T00:13:41.294Z,17.95
2022-10-19T00:16:11.700Z,18.03
2022-10-19T00:18:39.866Z,17.96
2022-10-19T00:21:09.677Z,17.95
2022-10-19T00:23:37.738Z,18.08
2022-10-19T00:26:05.685Z,18.18
2022-10-19T00:28:33.994Z,18.19
2022-10-19T00:31:05.547Z,18.30
2022-10-19T00:33:33.562Z,18.62
2022-10-19T00:36:01.395Z,18.40
2022-10-19T00:38:29.061Z,18.30
2022-10-19T00:40:56.701Z,18.11
2022-10-19T00:43:27.814Z,18.07
2022-10-19T00:45:55.461Z,18.02
2022-10-19T00:48:28.334Z,17.94
2022-10-19T00:50:58.267Z,17.94
2022-10-19T00:53:28.597Z,17.98
2022-10-19T00:55:58.360Z,17.97
2022-10-19T00:58:25.983Z,18.05
2022-10-19T01:00:54.080Z,18.03
2022-10-19T01:03:24.077Z,18.01
2022-10-19T01:05:52.305Z,18.23
2022-10-19T01:08:20.093Z,18.06
2022-10-19T01:10:54.992Z,17.99
2022-10-19T01:13:38.225Z,17.91
2022-10-19T01:16:13.139Z,17.86
2022-10-19T01:18:46.926Z,17.82
2022-10-19T01:21:24.563Z,17.87
2022-10-19T01:24:27.399Z,17.86
2022-10-19T01:27:18.962Z,17.86
2022-10-19T01:30:02.770Z,17.91
2022-10-19T01:32:39.337Z,17.99
2022-10-19T01:35:11.766Z,17.92
2022-10-19T01:37:47.582Z,17.83
2022-10-19T01:40:25.677Z,17.78
2022-10-19T01:43:02.340Z,17.76
2022-10-19T01:45:37.789Z,17.74
2022-10-19T01:48:11.929Z,17.68
2022-10-19T01:50:44.539Z,17.66
2022-10-19T01:53:14.769Z,17.63
2022-10-19T01:55:45.934Z,17.64
2022-10-19T01:58:19.121Z,17.61
2022-10-19T02:00:51.726Z,17.59
2022-10-19T02:03:20.659Z,17.61
2022-10-19T02:05:50.516Z,17.57
2022-10-19T02:08:23.423Z,17.53
2022-10-19T02:10:51.571Z,17.50
2022-10-19T02:13:21.767Z,17.49
2022-10-19T02:15:53.683Z,17.47
2022-10-19T02:18:27.890Z,17.42
2022-10-19T02:20:56.517Z,17.39
2022-10-19T02:23:27.456Z,17.37
2022-10-19T02:25:56.595Z,17.39
2022-10-19T02:31:00.151Z,17.40
2022-10-19T02:33:29.734Z,17.41
2022-10-19T02:35:58.704Z,17.41
2022-10-19T02:38:27.146Z,17.40
2022-10-19T02:41:04.059Z,17.43
2022-10-19T02:43:35.411Z,17.41
2022-10-19T02:46:08.411Z,17.53
2022-10-19T02:48:37.341Z,17.47
2022-10-19T02:51:05.680Z,17.44
2022-10-19T02:53:33.333Z,17.40
2022-10-19T02:56:01.000Z,17.45
2022-10-19T02:58:28.579Z,17.50
2022-10-19T03:00:56.133Z,17.45
2022-10-19T03:03:25.138Z,17.41
2022-10-19T03:05:52.675Z,17.39
2022-10-19T03:08:20.261Z,17.37
2022-10-19T03:10:47.834Z,17.36
2022-10-19T03:13:15.429Z,17.35
2022-10-19T03:15:42.962Z,17.33
2022-10-19T03:18:10.534Z,17.32
2022-10-19T03:20:39.432Z,17.37
2022-10-19T03:23:07.028Z,17.41
2022-10-19T03:25:34.608Z,17.49
2022-10-19T03:28:02.163Z,17.62
2022-10-19T03:30:29.813Z,17.54
2022-10-19T03:32:57.748Z,17.51
2022-10-19T03:35:25.342Z,17.42
2022-10-19T03:37:54.259Z,17.37
2022-10-19T03:40:21.881Z,17.35
2022-10-19T03:42:49.494Z,17.36
2022-10-19T03:45:17.185Z,17.39
2022-10-19T03:47:44.774Z,17.45
2022-10-19T03:50:14.142Z,17.40
2022-10-19T03:52:41.765Z,17.38
2022-10-19T03:55:11.356Z,17.35
2022-10-19T03:57:39.152Z,17.34
2022-10-19T04:00:07.629Z,17.30
2022-10-19T04:02:35.213Z,17.26
2022-10-19T04:05:03.547Z,17.28
2022-10-19T04:07:31.259Z,17.26
2022-10-19T04:09:59.116Z,17.22
2022-10-19T04:12:28.083Z,17.20
2022-10-19T04:14:57.802Z,17.22
2022-10-19T04:17:26.399Z,17.22
2022-10-19T04:19:53.947Z,17.21
2022-10-19T04:22:21.602Z,17.21
2022-10-19T04:24:49.198Z,17.22
2022-10-19T04:27:16.764Z,17.21
2022-10-19T04:29:45.676Z,17.23
2022-10-19T04:32:13.239Z,17.22
2022-10-19T04:34:40.867Z,17.23
2022-10-19T04:37:08.445Z,17.25
2022-10-19T04:39:39.449Z,17.35
2022-10-19T04:42:07.092Z,17.30
2022-10-19T04:44:34.718Z,17.28
2022-10-19T04:47:03.693Z,17.26
2022-10-19T04:49:31.294Z,17.26
2022-10-19T04:51:58.857Z,17.23
2022-10-19T04:54:26.456Z,17.21
2022-10-19T04:56:54.251Z,17.22
2022-10-19T04:59:21.842Z,17.21
2022-10-19T05:01:49.831Z,17.23
2022-10-19T05:04:18.739Z,17.29
2022-10-19T05:06:46.366Z,17.34
2022-10-19T05:09:14.164Z,17.43
2022-10-19T05:11:41.765Z,17.48
2022-10-19T05:14:09.433Z,17.43
2022-10-19T05:16:37.133Z,17.40
2022-10-19T05:19:04.690Z,17.38
2022-10-19T05:21:33.707Z,17.41
2022-10-19T05:24:01.262Z,17.54
2022-10-19T05:26:30.216Z,17.95
2022-10-19T05:29:01.499Z,18.05
2022-10-19T05:31:31.481Z,17.98
2022-10-19T05:33:59.612Z,18.33
2022-10-19T05:36:29.419Z,18.48
2022-10-19T05:38:59.086Z,18.43
2022-10-19T05:41:27.614Z,18.33
2022-10-19T05:43:57.478Z,18.21
2022-10-19T05:46:26.941Z,18.21
2022-10-19T05:48:56.749Z,18.03
2022-10-19T05:51:25.731Z,17.90
2022-10-19T05:53:54.122Z,18.09
2022-10-19T05:56:24.921Z,18.02
2022-10-19T05:58:52.968Z,17.89
2022-10-19T06:01:21.297Z,17.73
2022-10-19T06:03:53.458Z,17.63
2022-10-19T06:06:21.245Z,17.63
2022-10-19T06:08:49.212Z,17.63
2022-10-19T06:11:18.291Z,17.68
2022-10-19T06:13:50.303Z,17.61
2022-10-19T06:16:19.911Z,17.57
2022-10-19T06:18:47.966Z,17.52
2022-10-19T06:21:17.238Z,17.46
2022-10-19T06:23:45.076Z,17.43
2022-10-19T06:26:14.893Z,17.42
2022-10-19T06:28:44.442Z,17.41
2022-10-19T06:31:14.724Z,17.37
2022-10-19T06:33:45.973Z,17.39
2022-10-19T06:36:18.841Z,17.43
2022-10-19T06:38:46.549Z,17.39
2022-10-19T06:41:14.156Z,17.40
2022-10-19T06:43:43.138Z,17.42
2022-10-19T06:46:15.547Z,17.43
2022-10-19T06:48:43.227Z,17.43
2022-10-19T06:51:11.806Z,17.41
2022-10-19T06:53:39.419Z,17.40
2022-10-19T06:56:07.914Z,17.40
2022-10-19T06:58:36.562Z,17.39
2022-10-19T07:01:07.460Z,17.39
2022-10-19T07:03:37.742Z,17.39
2022-10-19T07:06:07.665Z,17.40
2022-10-19T07:08:36.259Z,17.38
2022-10-19T07:11:06.159Z,17.38
2022-10-19T07:13:34.098Z,17.38
2022-10-19T07:16:05.570Z,17.38
2022-10-19T07:18:33.487Z,17.38
2022-10-19T07:21:05.312Z,17.38
2022-10-19T07:23:34.936Z,17.42
2022-10-19T07:26:06.335Z,17.42
2022-10-19T07:28:35.111Z,17.39
2022-10-19T07:31:06.742Z,17.38
2022-10-19T07:33:34.618Z,17.38
2022-10-19T07:36:06.035Z,17.40
2022-10-19T07:38:34.726Z,17.40
2022-10-19T07:41:04.747Z,17.45
2022-10-19T07:43:32.750Z,17.41
2022-10-19T07:46:01.829Z,17.37
2022-10-19T07:48:29.742Z,17.37
2022-10-19T07:50:57.379Z,17.37
2022-10-19T07:53:26.607Z,17.34
2022-10-19T07:55:54.235Z,17.48
2022-10-19T07:58:21.927Z,17.42
2022-10-19T08:00:49.484Z,17.38
2022-10-19T08:06:06.517Z,17.46
2022-10-19T08:08:35.741Z,17.45
2022-10-19T08:11:07.790Z,17.45
2022-10-19T08:13:35.740Z,17.49
2022-10-19T08:16:03.374Z,17.46
2022-10-19T08:21:03.209Z,17.47
2022-10-19T08:23:30.758Z,17.48
2022-10-19T08:26:00.084Z,17.46
2022-10-19T08:28:27.659Z,17.45
2022-10-19T08:30:58.833Z,17.46
2022-10-19T08:33:27.232Z,17.51
2022-10-19T08:35:55.117Z,17.53
2022-10-19T08:38:22.777Z,17.58
2022-10-19T08:40:50.403Z,17.50
2022-10-19T08:43:24.636Z,17.51
2022-10-19T08:46:00.185Z,17.53
2022-10-19T08:48:32.867Z,17.53
2022-10-19T08:51:01.963Z,17.53
2022-10-19T08:53:38.378Z,17.55
2022-10-19T08:56:38.838Z,17.58
2022-10-19T08:59:15.107Z,17.54
2022-10-19T09:01:50.758Z,17.53
2022-10-19T09:04:24.818Z,17.51
2022-10-19T09:07:22.618Z,17.51
2022-10-19T09:09:52.241Z,17.49
2022-10-19T09:12:25.869Z,17.49
2022-10-19T09:15:00.632Z,17.47
2022-10-19T09:17:29.259Z,17.47
2022-10-19T09:19:57.834Z,17.48
2022-10-19T09:22:32.188Z,17.46
2022-10-19T09:25:04.244Z,17.47
2022-10-19T09:27:37.366Z,17.46
2022-10-19T09:30:15.623Z,17.49
2022-10-19T09:32:43.380Z,17.73
2022-10-19T09:35:23.046Z,17.69
2022-10-19T09:37:52.522Z,17.79
2022-10-19T09:40:22.501Z,17.77
2022-10-19T09:42:56.838Z,17.96
2022-10-19T09:45:36.813Z,17.93
2022-10-19T09:48:17.682Z,17.87
2022-10-19T09:50:46.233Z,17.87
2022-10-19T09:53:20.597Z,17.76
2022-10-19T09:55:52.232Z,17.72
2022-10-19T09:58:21.250Z,17.73
2022-10-19T10:00:54.800Z,17.73
2022-10-19T10:03:28.403Z,17.70
2022-10-19T10:05:58.633Z,17.75
2022-10-19T10:08:28.454Z,17.77
2022-10-19T10:11:02.445Z,17.93
2022-10-19T10:13:30.092Z,17.86
2022-10-19T10:16:02.356Z,17.82
2022-10-19T10:18:30.817Z,17.80
2022-10-19T10:21:01.891Z,17.78
2022-10-19T10:23:32.496Z,17.74
2022-10-19T10:26:01.586Z,17.74
2022-10-19T10:28:31.095Z,17.74
2022-10-19T10:31:04.552Z,17.75
2022-10-19T10:36:25.816Z,17.74
2022-10-19T10:39:04.328Z,17.74
2022-10-19T10:41:37.957Z,17.78
2022-10-19T10:44:09.651Z,17.80
2022-10-19T10:46:47.097Z,17.90
2022-10-19T10:49:22.100Z,17.89
2022-10-19T10:51:53.728Z,17.88
2022-10-19T10:54:22.982Z,18.01
2022-10-19T10:57:06.317Z,18.15
2022-10-19T10:59:41.740Z,18.09
2022-10-19T11:05:02.860Z,18.48
2022-10-19T11:07:33.891Z,18.68
2022-10-19T11:10:09.752Z,18.63
2022-10-19T11:12:40.783Z,18.44
2022-10-19T11:15:18.610Z,18.48
2022-10-19T11:17:56.655Z,18.28
2022-10-19T11:20:28.879Z,18.32
2022-10-19T11:23:07.831Z,18.38
2022-10-19T11:25:47.055Z,18.44
2022-10-19T11:28:27.734Z,18.26
2022-10-19T11:31:02.297Z,18.20
2022-10-19T11:33:48.731Z,18.30
2022-10-19T11:36:30.978Z,18.30
2022-10-19T11:39:22.709Z,18.14
2022-10-19T11:42:01.324Z,18.10
2022-10-19T11:44:42.566Z,18.06
2022-10-19T11:47:35.057Z,18.02
2022-10-19T11:50:20.498Z,18.16
2022-10-19T11:52:55.916Z,18.11
2022-10-19T11:55:34.310Z,18.27
2022-10-19T11:58:13.446Z,18.26
2022-10-19T12:00:50.216Z,18.24
2022-10-19T12:03:42.056Z,18.22
2022-10-19T12:06:18.639Z,18.25
2022-10-19T12:09:03.030Z,18.24
2022-10-19T12:11:44.227Z,18.23
2022-10-19T12:14:16.789Z,18.32
2022-10-19T12:16:49.702Z,18.25
2022-10-19T12:19:21.164Z,18.20
2022-10-19T12:21:52.065Z,18.19
2022-10-19T12:24:24.530Z,18.21
2022-10-19T12:26:54.822Z,18.21
2022-10-19T12:29:25.797Z,18.16
2022-10-19T12:31:55.399Z,18.21
2022-10-19T12:34:32.328Z,18.16
2022-10-19T12:37:08.671Z,18.14
2022-10-19T12:39:44.141Z,18.37
2022-10-19T12:42:22.623Z,18.61
2022-10-19T12:45:22.620Z,18.65
2022-10-19T12:48:20.794Z,18.43
2022-10-19T12:51:13.443Z,18.53
2022-10-19T12:53:46.981Z,18.41
2022-10-19T12:56:19.799Z,18.36
2022-10-19T12:58:54.977Z,18.33
2022-10-19T13:01:26.555Z,18.39
2022-10-19T13:04:08.544Z,18.42
2022-10-19T13:06:38.252Z,18.42
2022-10-19T13:09:10.161Z,18.63
2022-10-19T13:11:57.870Z,18.60
2022-10-19T13:14:47.971Z,18.64
2022-10-19T13:17:40.776Z,18.65
2022-10-19T13:20:49.108Z,18.59
2022-10-19T13:23:39.958Z,18.72
2022-10-19T13:26:32.410Z,18.68
2022-10-19T13:29:00.817Z,18.93
2022-10-19T13:31:30.379Z,18.86
2022-10-19T13:33:58.689Z,18.97
2022-10-19T13:36:27.191Z,18.91
2022-10-19T13:39:15.360Z,19.15
2022-10-19T13:41:53.827Z,19.00
2022-10-19T13:44:25.902Z,18.83
2022-10-19T13:47:21.716Z,18.76
2022-10-19T13:50:07.449Z,18.75
2022-10-19T13:53:08.383Z,18.77
2022-10-19T13:56:00.482Z,18.83
2022-10-19T13:58:58.991Z,19.00
2022-10-19T14:01:40.372Z,19.10
2022-10-19T14:04:20.718Z,18.99
2022-10-19T14:06:53.507Z,18.89
2022-10-19T14:09:45.563Z,18.86
2022-10-19T14:12:19.614Z,18.96
2022-10-19T14:14:48.550Z,19.09
2022-10-19T14:19:54.238Z,19.08
2022-10-19T14:22:26.794Z,19.24
2022-10-19T14:25:02.458Z,19.27
2022-10-19T14:27:31.491Z,19.35
2022-10-19T14:30:00.811Z,19.38
2022-10-19T14:32:30.413Z,19.54
2022-10-19T14:37:37.845Z,19.76
2022-10-19T14:40:09.591Z,19.71
2022-10-19T14:42:42.968Z,19.64
2022-10-19T14:45:15.559Z,19.63
2022-10-19T14:47:54.057Z,19.52
2022-10-19T14:50:25.302Z,19.50
2022-10-19T14:52:58.278Z,19.39
2022-10-19T14:55:31.937Z,19.20
2022-10-19T14:57:59.825Z,19.13
2022-10-19T15:00:32.736Z,19.11
2022-10-19T15:03:03.270Z,19.12
2022-10-19T15:05:34.041Z,19.28
2022-10-19T15:08:08.752Z,19.22
2022-10-19T15:10:43.593Z,19.17
2022-10-19T15:13:22.755Z,19.06
2022-10-19T15:15:54.550Z,18.99
2022-10-19T15:18:47.531Z,18.91
2022-10-19T15:21:15.111Z,18.86
2022-10-19T15:23:44.635Z,18.82
2022-10-19T15:26:20.237Z,18.77
2022-10-19T15:28:48.863Z,18.71
2022-10-19T15:31:20.713Z,18.68
2022-10-19T15:33:51.647Z,18.65
2022-10-19T15:36:20.574Z,18.60
2022-10-19T15:38:50.476Z,18.56
2022-10-19T15:41:21.532Z,18.60
2022-10-19T15:43:52.724Z,18.55
2022-10-19T15:46:32.047Z,18.49
2022-10-19T15:49:04.253Z,18.47
2022-10-19T15:51:49.586Z,18.41
2022-10-19T15:54:19.139Z,18.45
2022-10-19T15:56:48.381Z,18.42
2022-10-19T15:59:17.985Z,18.41
2022-10-19T16:01:52.449Z,18.43
2022-10-19T16:04:22.799Z,18.41
2022-10-19T16:06:50.554Z,18.37
2022-10-19T16:09:20.971Z,18.38
2022-10-19T16:11:50.142Z,18.32
2022-10-19T16:16:51.668Z,18.23
2022-10-19T16:19:19.276Z,18.17
2022-10-19T16:21:50.127Z,18.16
2022-10-19T16:24:18.070Z,18.14
2022-10-19T16:26:45.661Z,18.13
2022-10-19T16:29:13.226Z,18.09
2022-10-19T16:31:40.758Z,18.06
2022-10-19T16:34:10.073Z,18.05
2022-10-19T16:36:37.753Z,18.10
2022-10-19T16:39:05.380Z,18.06
2022-10-19T16:41:33.087Z,18.08
2022-10-19T16:44:00.668Z,18.05
2022-10-19T16:46:28.263Z,18.07
2022-10-19T16:48:55.879Z,18.01
2022-10-19T16:51:31.057Z,17.98
2022-10-19T16:53:59.009Z,17.95
2022-10-19T16:56:29.298Z,17.86
2022-10-19T16:58:59.661Z,17.83
2022-10-19T17:01:28.498Z,17.79
2022-10-19T17:03:56.765Z,17.78
2022-10-19T17:06:25.017Z,17.80
2022-10-19T17:11:44.013Z,17.94
2022-10-19T17:14:13.553Z,17.82
2022-10-19T17:16:41.632Z,17.72
2022-10-19T17:19:11.444Z,17.65
2022-10-19T17:21:42.088Z,17.59
2022-10-19T17:24:20.169Z,17.51
2022-10-19T17:26:50.683Z,17.43
2022-10-19T17:29:18.567Z,17.43
2022-10-19T17:31:46.192Z,17.47
2022-10-19T17:34:13.901Z,17.51
2022-10-19T17:36:44.291Z,17.71
2022-10-19T17:39:17.691Z,17.76
2022-10-19T17:41:46.161Z,17.67
2022-10-19T17:44:14.175Z,17.66
2022-10-19T17:46:41.937Z,17.80
2022-10-19T17:49:10.248Z,17.86
2022-10-19T17:51:39.012Z,18.10
2022-10-19T17:54:08.698Z,18.18
2022-10-19T17:56:39.220Z,18.06
2022-10-19T17:59:08.789Z,18.02
2022-10-19T18:01:37.919Z,17.96
2022-10-19T18:04:06.467Z,17.95
2022-10-19T18:06:36.304Z,17.64
2022-10-19T18:09:06.453Z,17.54
2022-10-19T18:11:38.454Z,17.62
2022-10-19T18:14:09.262Z,17.52
2022-10-19T18:16:39.626Z,17.40
2022-10-19T18:19:08.172Z,17.54
2022-10-19T18:21:38.438Z,17.52
2022-10-19T18:24:09.065Z,17.35
2022-10-19T18:26:40.329Z,17.39
2022-10-19T18:29:13.646Z,17.41
2022-10-19T18:31:41.657Z,17.43
2022-10-19T18:34:13.519Z,17.51
2022-10-19T18:36:41.167Z,17.35
2022-10-19T18:39:08.886Z,17.44
2022-10-19T18:41:37.162Z,17.36
2022-10-19T18:44:06.866Z,17.25
2022-10-19T18:46:37.575Z,17.12
2022-10-19T18:49:08.471Z,17.03
2022-10-19T18:51:36.491Z,17.05
2022-10-19T18:54:04.283Z,17.00
2022-10-19T18:56:33.319Z,16.88
2022-10-19T18:59:00.925Z,16.84
2022-10-19T19:01:29.838Z,16.74
2022-10-19T19:04:06.521Z,16.72
2022-10-19T19:06:36.054Z,16.73
2022-10-19T19:09:06.404Z,16.80
2022-10-19T19:11:37.372Z,16.90
2022-10-19T19:14:07.641Z,16.89
2022-10-19T19:16:36.907Z,16.89
2022-10-19T19:19:06.776Z,16.85
2022-10-19T19:21:36.424Z,16.68
2022-10-19T19:24:06.270Z,16.69
2022-10-19T19:26:36.535Z,16.64
2022-10-19T19:29:04.674Z,16.56
2022-10-19T19:31:32.298Z,16.66
2022-10-19T19:34:01.434Z,16.69
2022-10-19T19:36:30.489Z,16.60
2022-10-19T19:38:59.138Z,16.57
2022-10-19T19:41:28.803Z,16.47
2022-10-19T19:43:57.491Z,16.41
2022-10-19T19:46:25.141Z,16.30
2022-10-19T19:48:59.902Z,16.26
2022-10-19T19:51:28.725Z,16.22
2022-10-19T19:53:57.970Z,16.21
2022-10-19T19:56:25.758Z,16.17
2022-10-19T19:58:55.925Z,16.19
2022-10-19T20:01:24.033Z,16.11
2022-10-19T20:03:51.943Z,16.05
2022-10-19T20:06:25.006Z,16.03
2022-10-19T20:08:53.855Z,16.05
2022-10-19T20:11:24.226Z,16.00
2022-10-19T20:13:51.927Z,15.99
2022-10-19T20:16:25.282Z,15.96
2022-10-19T20:18:57.647Z,15.90
2022-10-19T20:21:27.190Z,15.86
2022-10-19T20:23:54.747Z,15.78
2022-10-19T20:26:25.088Z,15.93
2022-10-19T20:28:53.392Z,15.85
2022-10-19T20:31:21.436Z,15.76
2022-10-19T20:33:49.583Z,15.76
2022-10-19T20:36:19.020Z,15.82
2022-10-19T20:38:48.874Z,15.75
2022-10-19T20:41:17.549Z,15.66
2022-10-19T20:43:46.990Z,15.58
2022-10-19T20:46:17.682Z,15.53
2022-10-19T20:48:45.967Z,15.50
2022-10-19T20:51:15.767Z,15.45
2022-10-19T20:53:46.181Z,15.41
2022-10-19T20:56:15.629Z,15.38
2022-10-19T20:58:44.867Z,15.34
2022-10-19T21:01:15.806Z,15.36
2022-10-19T21:03:46.935Z,15.33
2022-10-19T21:06:14.589Z,15.33
2022-10-19T21:08:42.555Z,15.31
2022-10-19T21:11:14.443Z,15.30
2022-10-19T21:13:42.572Z,15.28
2022-10-19T21:16:11.313Z,15.25
2022-10-19T21:18:40.446Z,15.23
2022-10-19T21:21:13.287Z,15.24
2022-10-19T21:23:41.067Z,15.15
2022-10-19T21:26:08.764Z,15.13
2022-10-19T21:28:36.413Z,15.08
2022-10-19T21:31:05.179Z,15.08
2022-10-19T21:33:32.824Z,15.08
2022-10-19T21:36:03.437Z,15.04
2022-10-19T21:38:31.492Z,14.98
2022-10-19T21:40:59.706Z,15.04
2022-10-19T21:43:28.040Z,14.99
2022-10-19T21:45:55.761Z,14.97
2022-10-19T21:48:24.389Z,14.91
2022-10-19T21:50:51.974Z,14.87
2022-10-19T21:53:22.554Z,14.84
2022-10-19T21:55:50.967Z,14.83
2022-10-19T21:58:21.492Z,14.82
2022-10-19T22:00:49.464Z,14.82
2022-10-19T22:03:18.978Z,14.80
2022-10-19T22:05:53.287Z,14.78
2022-10-19T22:08:22.291Z,14.78
2022-10-19T22:10:49.899Z,14.80
2022-10-19T22:13:17.735Z,14.76
2022-10-19T22:15:45.584Z,14.73
2022-10-19T22:18:13.235Z,14.73
2022-10-19T22:20:41.767Z,14.72
2022-10-19T22:23:09.498Z,14.69
2022-10-19T22:25:38.442Z,14.67
2022-10-19T22:28:06.089Z,14.64
2022-10-19T22:30:33.779Z,14.62
2022-10-19T22:33:01.456Z,14.61
2022-10-19T22:35:29.157Z,14.59
2022-10-19T22:37:56.747Z,14.63
2022-10-19T22:40:24.334Z,14.65
2022-10-19T22:42:53.310Z,14.59
2022-10-19T22:45:20.894Z,14.54
2022-10-19T22:47:48.620Z,14.54
2022-10-19T22:50:18.644Z,14.56
2022-10-19T22:52:46.229Z,14.57
2022-10-19T22:55:13.845Z,14.49
2022-10-19T22:57:41.486Z,14.41
2022-10-19T23:00:12.132Z,14.40
2022-10-19T23:02:39.723Z,14.37
2022-10-19T23:05:07.842Z,14.37
2022-10-19T23:07:37.586Z,14.32
2022-10-19T23:10:06.124Z,14.35
2022-10-19T23:12:33.811Z,14.37
2022-10-19T23:15:01.431Z,14.39
2022-10-19T23:17:30.485Z,14.35
2022-10-19T23:19:58.082Z,14.39
2022-10-19T23:22:25.685Z,14.49
2022-10-19T23:24:53.281Z,14.52
2022-10-19T23:27:21.198Z,14.46
2022-10-19T23:29:48.800Z,14.61
2022-10-19T23:32:16.438Z,14.71
2022-10-19T23:34:47.561Z,14.79
2022-10-19T23:37:16.200Z,14.74
2022-10-19T23:39:43.803Z,14.66
2022-10-19T23:42:11.417Z,14.71
2022-10-19T23:44:39.012Z,14.70
2022-10-19T23:47:06.716Z,14.67
2022-10-19T23:49:34.315Z,14.79
2022-10-19T23:52:03.311Z,14.79
2022-10-19T23:54:30.863Z,14.76
2022-10-19T23:56:58.940Z,14.82
2022-10-19T23:59:26.628Z,14.97
